Time;durP1;ratioP1;P1;durP2;ratioP2;P2;SDS_P1;SDS_P2;PMS_P1;PMS_P2;Temp;Humidity;BMP_temperature;BMP_pressure;BME280_temperature;BME280_humidity;BME280_pressure;Samples;Min_cycle;Max_cycle;Signal;HPM_P1;HPM_P2
2022/08/15 00:00:29;;;;;;;8.68;6.45;;;;;;;25.97;49.27;100122.09;5095724;28;20486;-47
2022/08/15 00:02:57;;;;;;;9.40;6.25;;;;;;;25.91;49.33;100124.47;5095824;28;20032;-50
2022/08/15 00:05:32;;;;;;;9.20;6.38;;;;;;;25.88;49.46;100119.66;5096259;28;20043;-50
2022/08/15 00:08:06;;;;;;;11.20;6.53;;;;;;;25.85;49.77;100123.19;5096455;28;20036;-52
2022/08/15 00:10:56;;;;;;;9.48;6.57;;;;;;;25.83;49.86;100119.19;5095633;28;20044;-50
2022/08/15 00:13:30;;;;;;;9.15;6.05;;;;;;;25.80;49.73;100131.13;5096292;28;20092;-50
2022/08/15 00:16:11;;;;;;;10.20;6.18;;;;;;;25.84;49.50;100146.72;5079747;28;20043;-50
2022/08/15 00:18:48;;;;;;;9.63;6.95;;;;;;;25.89;49.80;100129.63;5096222;28;20036;-49
2022/08/15 00:21:20;;;;;;;9.57;6.50;;;;;;;25.87;50.02;100123.63;5077383;28;20486;-49
2022/08/15 00:23:50;;;;;;;11.48;6.00;;;;;;;25.80;50.14;100140.31;5095764;28;20044;-50
2022/08/15 00:26:18;;;;;;;10.55;5.60;;;;;;;25.84;50.02;100157.88;5077897;28;20110;-50
2022/08/15 00:29:07;;;;;;;10.85;6.80;;;;;;;25.92;49.79;100142.78;5069792;28;20036;-48
2022/08/15 00:31:36;;;;;;;9.85;6.97;;;;;;;25.88;50.06;100130.84;5094707;28;20044;-49
2022/08/15 00:34:15;;;;;;;10.60;6.80;;;;;;;25.80;50.06;100125.56;5075262;28;20044;-49
2022/08/15 00:37:05;;;;;;;8.85;6.72;;;;;;;25.79;50.14;100132.34;5090207;28;20044;-48
2022/08/15 00:39:35;;;;;;;11.05;6.53;;;;;;;25.81;50.51;100136.34;5095986;28;20494;-47
2022/08/15 00:42:07;;;;;;;9.45;6.65;;;;;;;25.84;50.35;100131.97;5076206;28;20040;-50
2022/08/15 00:44:45;;;;;;;9.10;6.82;;;;;;;25.84;50.48;100129.97;5093695;28;20047;-49
2022/08/15 00:47:29;;;;;;;10.43;6.60;;;;;;;25.81;50.32;100127.97;5081362;28;20129;-48
2022/08/15 00:50:13;;;;;;;12.88;6.45;;;;;;;25.84;50.40;100135.56;5063524;28;20475;-48
2022/08/15 00:53:07;;;;;;;9.50;7.07;;;;;;;25.87;50.68;100128.41;5078643;28;20402;-52
2022/08/15 00:55:39;;;;;;;9.27;6.22;;;;;;;25.89;50.56;100124.03;5077108;28;20484;-47
2022/08/15 00:58:06;;;;;;;10.63;6.97;;;;;;;25.90;50.48;100128.47;5061233;28;20044;-47
2022/08/15 01:00:54;;;;;;;10.63;7.07;;;;;;;25.86;50.67;100122.03;5076711;28;20040;-49
2022/08/15 01:03:29;;;;;;;9.32;6.25;;;;;;;25.84;50.54;100134.75;5076484;28;20046;-47
2022/08/15 01:06:02;;;;;;;11.30;7.55;;;;;;;25.81;51.02;100136.34;5077042;28;20085;-48
2022/08/15 01:08:35;;;;;;;12.45;7.78;;;;;;;25.78;51.46;100144.66;5095265;28;20037;-50
2022/08/15 01:11:22;;;;;;;11.07;8.25;;;;;;;25.73;51.50;100141.03;5077640;28;20052;-50
2022/08/15 01:13:52;;;;;;;14.80;9.48;;;;;;;25.65;51.70;100144.19;5076043;28;20054;-48
2022/08/15 01:16:31;;;;;;;13.68;8.68;;;;;;;25.57;52.03;100136.94;5077990;28;20123;-50
2022/08/15 01:19:13;;;;;;;12.48;9.40;;;;;;;25.52;52.43;100143.69;5073400;28;20036;-50
2022/08/15 01:21:46;;;;;;;15.82;10.32;;;;;;;25.46;52.67;100128.50;5077050;28;20040;-52
2022/08/15 01:24:37;;;;;;;13.60;9.85;;;;;;;25.41;53.01;100118.50;5074845;28;20044;-50
2022/08/15 01:27:29;;;;;;;16.02;9.80;;;;;;;25.37;53.21;100116.88;5076565;28;20448;-52
2022/08/15 01:30:10;;;;;;;12.98;10.18;;;;;;;25.36;53.47;100121.66;5078551;28;20051;-50
2022/08/15 01:32:58;;;;;;;14.45;10.75;;;;;;;25.34;53.09;100124.03;5076776;28;20490;-53
2022/08/15 01:35:27;;;;;;;12.68;9.73;;;;;;;25.35;53.13;100120.06;5059202;28;20430;-50
2022/08/15 01:37:56;;;;;;;12.90;9.63;;;;;;;25.35;53.51;100119.25;5093435;28;20044;-54
2022/08/15 01:40:59;;;;;;;15.18;10.00;;;;;;;25.31;53.37;100112.84;5076963;28;20089;-54
2022/08/15 01:43:32;;;;;;;13.20;10.23;;;;;;;25.20;53.76;100107.16;5076365;28;20048;-51
2022/08/15 01:46:07;;;;;;;14.70;9.63;;;;;;;25.12;54.20;100105.47;5058557;28;20486;-53
2022/08/15 01:48:45;;;;;;;15.07;9.65;;;;;;;25.12;54.03;100097.13;5056711;28;20040;-54
2022/08/15 01:51:16;;;;;;;15.18;10.40;;;;;;;25.15;53.84;100102.72;5069123;28;20044;-53
2022/08/15 01:53:54;;;;;;;15.35;9.15;;;;;;;25.21;53.73;100097.63;5075289;28;20101;-47
2022/08/15 01:56:36;;;;;;;9.73;7.80;;;;;;;25.24;53.44;100106.00;5059527;28;20094;-54
2022/08/15 01:59:19;;;;;;;14.88;11.93;;;;;;;25.26;53.82;100119.56;5075899;28;20485;-47
2022/08/15 02:01:56;;;;;;;15.18;11.45;;;;;;;25.21;54.27;100108.78;5074081;28;20048;-54
2022/08/15 02:04:36;;;;;;;12.38;9.95;;;;;;;25.18;53.85;100103.97;5075486;28;20092;-52
2022/08/15 02:07:10;;;;;;;12.55;10.75;;;;;;;25.19;53.88;100102.78;5094253;28;20051;-56
2022/08/15 02:09:50;;;;;;;15.63;10.77;;;;;;;25.21;54.28;100108.78;5075742;28;20460;-55
2022/08/15 02:12:35;;;;;;;18.08;10.52;;;;;;;25.22;54.13;100111.16;5075013;28;20039;-53
2022/08/15 02:15:23;;;;;;;11.80;9.10;;;;;;;25.25;53.72;100117.97;5067096;28;20081;-52
2022/08/15 02:17:55;;;;;;;12.65;9.82;;;;;;;25.26;53.83;100119.56;5093743;28;20051;-48
2022/08/15 02:20:23;;;;;;;11.85;9.35;;;;;;;25.29;53.39;100127.16;5075469;28;20040;-51
2022/08/15 02:22:55;;;;;;;15.38;11.15;;;;;;;25.29;53.82;100138.31;5058604;28;20052;-51
2022/08/15 02:25:24;;;;;;;13.88;11.18;;;;;;;25.24;54.33;100130.31;5075459;28;20040;-49
2022/08/15 02:27:54;;;;;;;16.75;11.70;;;;;;;25.18;54.35;100126.25;5075032;28;20051;-52
2022/08/15 02:30:26;;;;;;;14.50;9.45;;;;;;;25.13;53.53;100127.38;5061673;28;20514;-51
2022/08/15 02:33:00;;;;;;;14.95;9.60;;;;;;;25.11;53.42;100123.38;5059244;28;20047;-51
2022/08/15 02:35:28;;;;;;;11.77;9.05;;;;;;;25.06;53.15;100117.00;5066924;28;20419;-51
2022/08/15 02:38:01;;;;;;;12.18;8.48;;;;;;;25.02;52.48;100135.66;5051978;28;20045;-52
2022/08/15 02:40:30;;;;;;;10.88;6.78;;;;;;;25.02;51.66;100132.06;5069160;28;20048;-50
2022/08/15 02:43:17;;;;;;;10.57;7.40;;;;;;;25.00;51.73;100135.22;5068507;28;20045;-50
2022/08/15 02:45:48;;;;;;;14.07;8.95;;;;;;;24.97;51.50;100127.66;5050702;28;20045;-52
2022/08/15 02:48:25;;;;;;;13.00;7.43;;;;;;;24.96;50.97;100125.22;5052044;28;20041;-50
2022/08/15 02:50:56;;;;;;;12.43;7.00;;;;;;;24.94;50.75;100144.31;5051887;28;20045;-52
2022/08/15 02:53:25;;;;;;;13.73;7.03;;;;;;;24.94;50.50;100138.75;5051940;28;20040;-52
2022/08/15 02:55:53;;;;;;;10.18;7.03;;;;;;;24.94;50.33;100133.16;5050082;28;20114;-50
2022/08/15 02:58:21;;;;;;;8.13;5.90;;;;;;;24.90;49.97;100133.16;5068396;28;20041;-51
2022/08/15 03:00:57;;;;;;;10.05;6.18;;;;;;;24.90;49.78;100138.72;5051860;28;20045;-52
2022/08/15 03:03:47;;;;;;;9.82;5.97;;;;;;;24.90;49.44;100137.94;5050984;28;20051;-49
2022/08/15 03:06:24;;;;;;;12.80;5.80;;;;;;;24.87;48.91;100134.72;5050827;28;20033;-51
2022/08/15 03:09:03;;;;;;;11.68;5.93;;;;;;;24.85;48.46;100130.72;5051156;28;20403;-51
2022/08/15 03:11:38;;;;;;;12.07;6.00;;;;;;;24.86;48.55;100137.88;5068312;28;20048;-52
2022/08/15 03:14:25;;;;;;;13.40;6.40;;;;;;;24.85;48.51;100130.72;5051046;28;20073;-50
2022/08/15 03:17:03;;;;;;;9.27;5.25;;;;;;;24.85;48.24;100139.88;5035199;28;20045;-50
2022/08/15 03:19:37;;;;;;;10.30;6.25;;;;;;;24.82;47.83;100142.59;5051711;28;20047;-51
2022/08/15 03:22:10;;;;;;;17.38;6.15;;;;;;;24.81;48.09;100138.22;5051190;28;20044;-50
2022/08/15 03:24:58;;;;;;;7.57;5.07;;;;;;;24.81;47.75;100129.88;5051297;28;20036;-49
2022/08/15 03:27:27;;;;;;;7.60;5.03;;;;;;;24.82;47.63;100131.44;5050081;28;20496;-51
2022/08/15 03:29:55;;;;;;;9.55;5.03;;;;;;;24.81;47.48;100129.88;5050656;28;20519;-51
2022/08/15 03:32:23;;;;;;;8.23;4.78;;;;;;;24.80;47.03;100133.84;5035432;28;20041;-51
2022/08/15 03:35:03;;;;;;;10.75;4.45;;;;;;;24.76;46.55;100127.44;5050475;28;20080;-53
2022/08/15 03:37:39;;;;;;;10.57;4.78;;;;;;;24.71;46.87;100130.56;5050558;28;20067;-51
2022/08/15 03:40:29;;;;;;;14.20;4.80;;;;;;;24.70;46.55;100128.94;5039923;28;20044;-51
2022/08/15 03:43:02;;;;;;;8.50;4.45;;;;;;;24.68;46.51;100140.47;5050901;28;20090;-50
2022/08/15 03:45:45;;;;;;;12.18;4.47;;;;;;;24.64;46.50;100142.41;5051390;28;20033;-50
2022/08/15 03:48:23;;;;;;;8.00;4.40;;;;;;;24.59;46.08;100140.75;5033274;28;20052;-49
2022/08/15 03:50:56;;;;;;;9.15;4.15;;;;;;;24.54;46.19;100131.97;5035523;28;20408;-50
2022/08/15 03:53:32;;;;;;;9.73;3.83;;;;;;;24.53;46.45;100138.69;5050941;28;20045;-50
2022/08/15 03:56:02;;;;;;;7.75;4.03;;;;;;;24.52;45.98;100135.09;5051342;28;20500;-50
2022/08/15 03:58:34;;;;;;;7.18;3.80;;;;;;;24.52;45.79;100131.53;5050678;28;20029;-50
2022/08/15 04:01:11;;;;;;;9.85;4.40;;;;;;;24.52;46.01;100139.88;5050722;28;20045;-51
2022/08/15 04:03:42;;;;;;;8.82;3.78;;;;;;;24.47;45.47;100132.66;5048509;28;20037;-50
2022/08/15 04:06:12;;;;;;;11.75;3.75;;;;;;;24.39;45.87;100128.97;5049240;28;20059;-48
2022/08/15 04:08:47;;;;;;;7.03;3.50;;;;;;;24.40;46.22;100127.78;5049402;28;20048;-52
2022/08/15 04:11:36;;;;;;;6.50;3.38;;;;;;;24.48;45.77;100136.25;5050310;28;20037;-47
2022/08/15 04:14:12;;;;;;;7.28;3.22;;;;;;;24.55;45.57;100145.47;5051145;28;20055;-51
2022/08/15 04:17:03;;;;;;;9.20;3.17;;;;;;;24.56;45.20;100157.44;5043823;28;20488;-47
2022/08/15 04:19:46;;;;;;;5.50;2.85;;;;;;;24.53;45.31;100152.63;5039700;28;20503;-51
2022/08/15 04:22:35;;;;;;;6.22;2.90;;;;;;;24.48;45.28;100150.97;5054646;28;20385;-52
2022/08/15 04:25:26;;;;;;;17.83;4.10;;;;;;;24.47;45.33;100154.94;5054137;28;20124;-50
2022/08/15 04:28:15;;;;;;;7.70;3.40;;;;;;;24.40;45.58;100157.59;5054785;28;20041;-47
2022/08/15 04:31:06;;;;;;;7.10;3.10;;;;;;;24.33;45.35;100152.75;5040078;28;20090;-48
2022/08/15 04:33:38;;;;;;;8.75;3.13;;;;;;;24.29;45.68;100165.81;5058357;28;20059;-53
2022/08/15 04:36:28;;;;;;;7.07;3.80;;;;;;;24.27;45.59;100161.78;5060386;28;20411;-51
2022/08/15 04:39:02;;;;;;;8.07;3.42;;;;;;;24.24;45.41;100166.13;5058878;28;20041;-51
2022/08/15 04:41:34;;;;;;;10.05;4.13;;;;;;;24.22;45.41;100172.09;5040622;28;20406;-49
2022/08/15 04:44:09;;;;;;;11.90;3.87;;;;;;;24.18;45.32;100167.66;5074410;28;20048;-51
2022/08/15 04:46:48;;;;;;;12.13;4.80;;;;;;;24.15;45.57;100173.97;5056174;28;20037;-49
2022/08/15 04:49:16;;;;;;;9.52;3.65;;;;;;;24.12;45.63;100161.59;5091165;28;20044;-50
2022/08/15 04:51:45;;;;;;;6.68;3.80;;;;;;;24.06;45.61;100168.69;5074354;28;20049;-52
2022/08/15 04:54:16;;;;;;;9.60;3.97;;;;;;;24.01;45.71;100166.22;5073788;28;20036;-50
2022/08/15 04:56:50;;;;;;;10.10;4.45;;;;;;;23.96;45.73;100156.22;5088858;28;20048;-53
2022/08/15 04:59:22;;;;;;;8.13;4.00;;;;;;;23.87;46.20;100171.59;5072940;28;20085;-50
2022/08/15 05:02:13;;;;;;;9.32;4.03;;;;;;;23.83;46.27;100165.16;5073883;28;20050;-50
2022/08/15 05:05:07;;;;;;;7.53;3.78;;;;;;;23.79;46.58;100165.13;5056234;28;20045;-50
2022/08/15 05:07:36;;;;;;;10.95;4.40;;;;;;;23.78;46.75;100164.28;5073699;28;20029;-51
2022/08/15 05:10:11;;;;;;;8.23;4.15;;;;;;;23.82;46.63;100169.91;5073822;28;20495;-48
2022/08/15 05:12:42;;;;;;;8.05;3.95;;;;;;;23.86;46.83;100170.78;5074163;28;20048;-56
2022/08/15 05:15:16;;;;;;;7.57;3.72;;;;;;;23.87;46.90;100177.94;5057560;28;20406;-56
2022/08/15 05:17:47;;;;;;;9.57;3.58;;;;;;;23.92;46.67;100174.03;5073068;28;20037;-54
2022/08/15 05:20:25;;;;;;;5.70;3.20;;;;;;;24.04;46.67;100187.75;5081291;28;20449;-55
2022/08/15 05:23:02;;;;;;;8.65;3.75;;;;;;;24.15;46.51;100182.31;5073097;28;20040;-56
2022/08/15 05:25:42;;;;;;;9.45;3.90;;;;;;;24.19;46.51;100189.53;5072125;28;20078;-51
2022/08/15 05:28:13;;;;;;;9.63;4.30;;;;;;;24.19;46.40;100183.16;5072708;28;20093;-50
2022/08/15 05:30:59;;;;;;;6.38;3.90;;;;;;;24.19;47.10;100188.75;5071073;28;20071;-51
2022/08/15 05:33:43;;;;;;;9.20;4.45;;;;;;;24.07;47.41;100198.13;5067609;28;20080;-56
2022/08/15 05:36:25;;;;;;;9.38;4.60;;;;;;;24.03;47.98;100197.28;5036599;28;20113;-56
2022/08/15 05:38:58;;;;;;;9.52;4.07;;;;;;;24.01;48.32;100192.06;5036203;28;20064;-55
2022/08/15 05:41:34;;;;;;;11.68;4.45;;;;;;;24.03;48.66;100191.72;5067955;28;20044;-54
2022/08/15 05:44:41;;;;;;;13.02;4.18;;;;;;;24.06;48.66;100195.72;5052225;28;20033;-53
2022/08/15 05:47:26;;;;;;;9.90;3.75;;;;;;;24.08;48.98;100194.16;5028070;28;20053;-52
2022/08/15 05:50:08;;;;;;;9.93;3.97;;;;;;;24.12;48.95;100194.22;5052036;28;20040;-50
2022/08/15 05:52:50;;;;;;;;;;;;;;;24.13;49.06;100196.63;5053427;28;20495;-50
2022/08/15 05:55:44;;;;;;;10.93;4.00;;;;;;;24.12;48.94;100200.56;4340405;28;10000670;-51
2022/08/15 05:58:40;;;;;;;9.15;3.95;;;;;;;24.15;49.31;100199.00;5037275;28;20406;-51
2022/08/15 06:01:27;;;;;;;7.82;3.67;;;;;;;24.16;49.28;100195.88;5047902;28;20033;-50
2022/08/15 06:04:08;;;;;;;7.38;3.65;;;;;;;24.16;49.67;100201.44;5047032;28;20056;-51
2022/08/15 06:06:56;;;;;;;10.77;4.53;;;;;;;24.12;50.11;100189.44;5049580;28;20045;-52
2022/08/15 06:09:42;;;;;;;6.00;3.90;;;;;;;24.10;50.01;100208.53;5030607;28;20586;-52
2022/08/15 06:12:35;;;;;;;10.50;4.10;;;;;;;24.13;50.14;100204.19;5049235;28;20075;-52
2022/08/15 06:15:37;;;;;;;9.55;3.92;;;;;;;24.20;50.53;100207.88;5027306;28;20037;-50
2022/08/15 06:18:09;;;;;;;9.98;3.35;;;;;;;24.22;50.25;100211.06;5036546;28;20037;-56
2022/08/15 06:21:00;;;;;;;10.23;4.20;;;;;;;24.20;51.05;100213.44;5052579;28;20048;-55
2022/08/15 06:23:49;;;;;;;10.98;4.38;;;;;;;24.20;51.24;100223.78;5051797;28;20488;-53
2022/08/15 06:26:38;;;;;;;6.72;3.50;;;;;;;24.22;51.05;100222.22;5052416;28;20041;-48
2022/08/15 06:29:31;;;;;;;8.90;3.90;;;;;;;24.22;51.86;100222.22;5052106;28;20045;-55
2022/08/15 06:32:11;;;;;;;7.05;3.70;;;;;;;24.20;51.77;100223.78;5049872;28;20110;-53
2022/08/15 06:35:13;;;;;;;8.93;3.92;;;;;;;24.11;52.33;100212.91;5051918;28;20063;-51
2022/08/15 06:37:47;;;;;;;14.88;5.72;;;;;;;24.10;52.57;100208.53;5052512;28;20055;-54
2022/08/15 06:40:57;;;;;;;18.13;5.80;;;;;;;24.08;53.04;100205.31;5051694;28;20056;-50
2022/08/15 06:43:25;;;;;;;14.63;5.15;;;;;;;24.09;53.16;100214.44;5031839;28;20443;-49
2022/08/15 06:46:06;;;;;;;21.88;7.03;;;;;;;24.10;53.38;100219.66;5029940;28;20037;-51
2022/08/15 06:48:54;;;;;;;25.40;7.68;;;;;;;24.17;53.10;100218.94;5023092;28;20045;-50
2022/08/15 06:51:38;;;;;;;17.15;6.32;;;;;;;24.19;53.13;100225.72;5050310;28;20514;-51
2022/08/15 06:54:22;;;;;;;17.85;5.90;;;;;;;24.21;53.30;100234.50;5062378;28;20056;-50
2022/08/15 06:57:18;;;;;;;14.85;6.00;;;;;;;24.25;53.09;100231.78;5037294;28;20037;-53
2022/08/15 07:00:15;;;;;;;11.48;5.28;;;;;;;24.29;53.11;100237.41;5029741;28;20496;-49
2022/08/15 07:03:59;;;;;;;8.70;4.22;;;;;;;24.27;53.54;100228.63;5053380;28;20044;-49
2022/08/15 07:07:09;;;;;;;9.00;4.70;;;;;;;24.24;54.28;100221.81;5052227;28;20049;-50
2022/08/15 07:09:54;;;;;;;7.25;4.10;;;;;;;24.27;53.75;100220.25;5013490;28;20049;-52
2022/08/15 07:12:50;;;;;;;10.48;4.22;;;;;;;24.33;53.26;100221.56;5044018;28;20053;-50
2022/08/15 07:15:25;;;;;;;11.43;4.60;;;;;;;24.32;54.15;100222.75;5035171;28;20041;-48
2022/08/15 07:17:59;;;;;;;6.90;3.95;;;;;;;24.35;53.88;100225.56;5030814;28;20045;-47
2022/08/15 07:20:31;;;;;;;12.13;5.15;;;;;;;24.38;54.19;100224.00;5048660;28;20048;-49
2022/08/15 07:23:35;;;;;;;10.73;4.78;;;;;;;24.31;54.93;100219.13;5049222;28;20037;-51
2022/08/15 07:26:10;;;;;;;9.60;5.30;;;;;;;24.19;55.68;100213.78;5031908;28;20057;-51
2022/08/15 07:28:42;;;;;;;;;;;;;;;24.15;55.20;100218.50;5035798;28;20044;-47
2022/08/15 07:31:18;;;;;;;13.98;5.38;;;;;;;24.16;56.39;100209.78;5050788;28;19942;-47
2022/08/15 07:33:56;;;;;;;9.48;4.90;;;;;;;24.11;56.46;100204.53;5029389;28;20495;-50
2022/08/15 07:36:32;;;;;;;10.07;4.68;;;;;;;24.10;56.37;100202.94;5050666;28;20095;-49
2022/08/15 07:39:27;;;;;;;12.60;5.75;;;;;;;24.11;56.79;100209.31;5051727;28;20090;-51
2022/08/15 07:42:15;;;;;;;10.88;4.95;;;;;;;24.15;56.83;100210.16;5050798;28;20048;-49
2022/08/15 07:45:07;;;;;;;13.15;5.40;;;;;;;24.19;57.24;100214.59;5051441;28;20037;-49
2022/08/15 07:47:39;;;;;;;13.13;5.47;;;;;;;24.20;57.20;100223.78;5035807;28;20048;-51
2022/08/15 07:50:12;;;;;;;9.93;4.70;;;;;;;24.21;57.06;100225.38;5051377;28;20384;-51
2022/08/15 07:53:17;;;;;;;9.82;4.90;;;;;;;24.24;56.78;100225.44;5054913;28;20499;-51
2022/08/15 07:56:09;;;;;;;8.10;4.38;;;;;;;24.27;56.70;100231.41;5035206;28;20421;-52
2022/08/15 07:59:23;;;;;;;11.18;5.10;;;;;;;24.29;56.97;100234.63;5041304;28;20041;-50
2022/08/15 08:02:29;;;;;;;10.65;4.90;;;;;;;24.34;57.06;100234.28;5054892;28;20059;-52
2022/08/15 08:05:17;;;;;;;10.15;4.82;;;;;;;24.36;57.24;100231.94;5041029;28;20041;-50
2022/08/15 08:07:54;;;;;;;13.38;5.47;;;;;;;24.37;57.68;100237.13;5039685;28;20098;-52
2022/08/15 08:10:32;;;;;;;9.10;5.18;;;;;;;24.41;56.86;100232.44;5038441;28;20045;-47
2022/08/15 08:13:28;;;;;;;7.47;4.70;;;;;;;24.44;57.20;100225.31;5070687;28;20492;-50
2022/08/15 08:16:19;;;;;;;12.80;5.00;;;;;;;24.44;57.69;100223.31;5054698;28;20404;-52
2022/08/15 08:18:59;;;;;;;11.73;4.95;;;;;;;24.47;58.27;100232.94;5054675;28;20041;-51
2022/08/15 08:21:33;;;;;;;9.38;5.10;;;;;;;24.51;58.04;100236.56;5055796;28;20399;-53
2022/08/15 08:24:37;;;;;;;10.68;4.90;;;;;;;24.51;57.65;100236.56;5038698;28;20040;-51
2022/08/15 08:27:21;;;;;;;11.50;4.90;;;;;;;24.59;57.05;100235.47;5047028;28;20581;-53
2022/08/15 08:30:09;;;;;;;10.07;4.90;;;;;;;24.61;57.05;100244.25;5038454;28;20037;-52
2022/08/15 08:33:02;;;;;;;15.35;5.65;;;;;;;24.63;57.37;100247.47;5054452;28;20094;-54
2022/08/15 08:35:32;;;;;;;12.00;5.70;;;;;;;24.65;57.53;100238.72;5054235;28;20044;-52
2022/08/15 08:38:19;;;;;;;9.50;5.07;;;;;;;24.65;57.45;100241.50;5055267;28;20416;-50
2022/08/15 08:41:34;;;;;;;10.88;5.80;;;;;;;24.66;57.08;100238.34;5055348;28;20049;-53
2022/08/15 08:44:30;;;;;;;14.10;5.72;;;;;;;24.66;56.88;100238.34;5046352;28;20492;-54
2022/08/15 08:47:11;;;;;;;8.75;5.05;;;;;;;24.65;56.71;100239.53;5055401;28;20476;-52
2022/08/15 08:50:10;;;;;;;12.18;5.40;;;;;;;24.66;56.85;100243.13;5054686;28;20037;-54
2022/08/15 08:53:29;;;;;;;10.70;5.03;;;;;;;24.67;56.34;100247.50;5048597;28;20048;-53
2022/08/15 08:56:16;;;;;;;13.18;5.72;;;;;;;24.65;56.75;100247.91;5055188;28;20044;-51
2022/08/15 08:59:08;;;;;;;9.35;5.05;;;;;;;24.66;56.56;100243.13;5055264;28;20040;-56
2022/08/15 09:01:38;;;;;;;13.48;5.35;;;;;;;24.66;57.21;100241.13;5054164;28;20041;-53
2022/08/15 09:04:12;;;;;;;11.07;5.30;;;;;;;24.65;57.03;100239.53;5053409;28;20071;-47
2022/08/15 09:06:48;;;;;;;10.68;4.90;;;;;;;24.64;57.24;100243.50;5053850;28;20045;-49
2022/08/15 09:09:52;;;;;;;10.48;5.03;;;;;;;24.63;56.81;100241.91;5053678;28;20040;-50
2022/08/15 09:15:18;;;;;;;10.88;5.25;;;;;;;24.61;57.11;100246.25;5061766;28;20507;-47
2022/08/15 09:17:59;;;;;;;10.60;5.05;;;;;;;24.59;57.27;100251.38;5053530;28;20037;-50
2022/08/15 09:20:33;;;;;;;10.20;5.35;;;;;;;24.58;57.40;100250.59;5054619;28;20372;-50
2022/08/15 09:23:05;;;;;;;12.80;5.50;;;;;;;24.57;57.64;100254.53;5054579;28;20063;-50
2022/08/15 09:25:43;;;;;;;12.85;5.93;;;;;;;24.56;57.98;100249.38;5053513;28;20041;-51
2022/08/15 09:28:29;;;;;;;9.48;4.70;;;;;;;24.55;58.50;100254.13;5054475;28;20041;-52
2022/08/15 09:31:11;;;;;;;13.15;5.07;;;;;;;24.54;58.19;100255.31;5052699;28;20036;-52
2022/08/15 09:33:40;;;;;;;11.20;5.35;;;;;;;24.53;59.25;100253.69;5064601;28;20059;-51
2022/08/15 09:36:20;;;;;;;14.23;5.85;;;;;;;24.50;59.01;100254.44;5094494;28;20047;-52
2022/08/15 09:39:21;;;;;;;9.88;4.97;;;;;;;24.47;59.53;100257.19;5094595;28;20036;-49
2022/08/15 09:42:10;;;;;;;7.95;4.60;;;;;;;24.47;60.99;100258.00;5093613;28;20137;-51
2022/08/15 09:45:51;;;;;;;15.57;5.55;;;;;;;24.47;61.24;100254.41;5079119;28;20043;-49
2022/08/15 09:48:24;;;;;;;11.75;5.10;;;;;;;24.48;61.82;100256.00;5052006;28;20045;-47
2022/08/15 09:51:19;;;;;;;11.07;5.32;;;;;;;24.52;61.83;100257.66;5049824;28;20522;-50
2022/08/15 09:54:07;;;;;;;10.00;5.63;;;;;;;24.52;60.80;100256.88;5075814;28;20044;-54
2022/08/15 09:57:17;;;;;;;11.98;5.30;;;;;;;24.52;61.07;100254.06;5076120;28;20043;-52
2022/08/15 09:59:56;;;;;;;9.13;5.13;;;;;;;24.54;61.04;100258.09;5087632;28;20060;-52
2022/08/15 10:02:27;;;;;;;12.15;5.43;;;;;;;24.56;61.39;100258.53;5062829;28;20043;-50
2022/08/15 10:05:09;;;;;;;11.23;5.22;;;;;;;24.60;61.65;100267.72;5077754;28;20036;-52
2022/08/15 10:07:56;;;;;;;10.50;5.07;;;;;;;24.62;60.58;100265.34;5076030;28;20031;-52
2022/08/15 10:10:47;;;;;;;13.35;6.15;;;;;;;24.61;60.97;100265.75;5072002;28;20486;-52
2022/08/15 10:13:28;;;;;;;11.27;6.00;;;;;;;24.58;61.20;100264.53;5090385;28;20435;-49
2022/08/15 10:15:58;;;;;;;12.02;5.60;;;;;;;24.54;61.23;100263.66;5087624;28;20441;-47
2022/08/15 10:18:26;;;;;;;10.85;5.57;;;;;;;24.58;60.75;100260.91;5093977;28;20086;-52
2022/08/15 10:21:19;;;;;;;8.40;5.30;;;;;;;24.61;59.45;100246.25;5074290;28;20410;-50
2022/08/15 10:23:53;;;;;;;10.02;5.60;;;;;;;24.65;59.63;100258.22;5089339;28;20052;-52
2022/08/15 10:26:29;;;;;;;10.10;5.68;;;;;;;24.68;60.78;100260.28;5075610;28;20047;-50
2022/08/15 10:29:13;;;;;;;11.15;5.70;;;;;;;24.66;60.72;100263.44;5075957;28;20039;-54
2022/08/15 10:31:58;;;;;;;14.57;5.97;;;;;;;24.69;60.78;100261.06;5093743;28;20044;-51
2022/08/15 10:35:04;;;;;;;9.88;4.78;;;;;;;24.71;59.94;100265.09;5064080;28;20077;-51
2022/08/15 10:37:51;;;;;;;10.70;4.82;;;;;;;24.75;59.63;100277.09;5073807;28;20039;-51
2022/08/15 10:40:52;;;;;;;12.23;5.75;;;;;;;24.76;60.15;100264.75;5092788;28;20071;-54
2022/08/15 10:43:44;;;;;;;9.40;5.47;;;;;;;24.79;59.33;100274.34;5090914;28;20040;-53
2022/08/15 10:47:02;;;;;;;8.95;5.07;;;;;;;24.79;60.52;100274.34;5092561;28;20127;-55
2022/08/15 10:49:45;;;;;;;8.57;5.38;;;;;;;24.80;59.74;100273.16;5043996;28;20433;-55
2022/08/15 10:52:40;;;;;;;8.52;5.22;;;;;;;24.80;59.45;100273.16;5091703;28;20044;-53
2022/08/15 10:55:19;;;;;;;8.18;4.95;;;;;;;24.78;60.43;100272.75;5093203;28;20124;-51
2022/08/15 10:58:32;;;;;;;11.40;5.38;;;;;;;24.77;59.80;100280.28;5076111;28;20547;-48
2022/08/15 11:01:24;;;;;;;8.73;5.20;;;;;;;24.78;59.24;100292.25;5071221;28;20040;-51
2022/08/15 11:03:55;;;;;;;11.27;5.40;;;;;;;24.78;60.49;100281.09;5092005;28;20048;-48
2022/08/15 11:06:46;;;;;;;7.72;4.85;;;;;;;24.77;60.03;100280.28;4386484;28;10001477;-51
2022/08/15 11:09:23;;;;;;;10.38;5.38;;;;;;;24.80;60.26;100284.31;5072987;28;20036;-52
2022/08/15 11:12:03;;;;;;;9.57;5.35;;;;;;;24.81;60.69;100285.91;5071794;28;20051;-51
2022/08/15 11:14:43;;;;;;;8.25;5.18;;;;;;;24.80;61.42;100287.09;5073305;28;20499;-50
2022/08/15 11:17:19;;;;;;;10.02;5.18;;;;;;;24.78;60.75;100290.25;5070966;28;20082;-51
2022/08/15 11:19:51;;;;;;;10.73;5.40;;;;;;;24.78;60.65;100295.03;5072393;28;20036;-51
2022/08/15 11:22:59;;;;;;;12.35;5.00;;;;;;;24.76;60.12;100300.16;5071121;28;20336;-47
2022/08/15 11:25:32;;;;;;;13.88;5.60;;;;;;;24.76;60.57;100294.59;5057478;28;20048;-50
2022/08/15 11:28:05;;;;;;;7.07;4.30;;;;;;;24.75;60.71;100293.81;5093345;28;20036;-48
2022/08/15 11:31:05;;;;;;;10.02;5.00;;;;;;;24.78;60.25;100297.81;5090717;28;20150;-51
2022/08/15 11:33:43;;;;;;;9.60;5.30;;;;;;;24.78;60.90;100292.25;5093279;28;20072;-50
2022/08/15 11:36:16;;;;;;;8.93;4.65;;;;;;;24.80;60.77;100289.88;5075055;28;20402;-47
2022/08/15 11:38:50;;;;;;;11.45;5.30;;;;;;;24.84;60.66;100293.50;5092988;28;20364;-50
2022/08/15 11:41:41;;;;;;;9.30;5.07;;;;;;;24.88;60.56;100286.00;5092183;28;20046;-50
2022/08/15 11:44:29;;;;;;;13.07;5.70;;;;;;;24.91;60.53;100290.81;5061897;28;20043;-49
2022/08/15 11:46:57;;;;;;;11.90;5.22;;;;;;;24.90;60.01;100294.78;5075817;28;20039;-50
2022/08/15 11:49:33;;;;;;;15.70;5.75;;;;;;;24.88;59.45;100294.34;5074634;28;20046;-52
2022/08/15 11:52:06;;;;;;;10.65;5.35;;;;;;;24.88;59.65;100297.16;5075470;28;20067;-51
2022/08/15 11:55:14;;;;;;;13.52;5.43;;;;;;;24.84;60.06;100294.28;5078505;28;20506;-50
2022/08/15 11:57:55;;;;;;;9.73;4.72;;;;;;;24.83;59.98;100289.91;5093061;28;20035;-51
2022/08/15 12:00:36;;;;;;;9.90;4.30;;;;;;;24.87;59.43;100298.34;5092002;28;20040;-52
2022/08/15 12:03:30;;;;;;;13.85;4.38;;;;;;;24.93;58.83;100291.22;5093285;28;20890;-48
2022/08/15 12:06:35;;;;;;;9.27;4.65;;;;;;;24.95;59.12;100297.25;5074908;28;20044;-52
2022/08/15 12:09:24;;;;;;;10.27;4.75;;;;;;;24.96;59.35;100296.03;5076800;28;20044;-49
2022/08/15 12:12:43;;;;;;;9.18;4.40;;;;;;;24.98;58.81;100299.25;5077111;28;20040;-50
2022/08/15 12:15:24;;;;;;;11.85;5.00;;;;;;;25.01;58.70;100306.84;5081838;28;20040;-47
2022/08/15 12:18:11;;;;;;;13.93;5.47;;;;;;;25.00;58.78;100305.25;5075093;28;20497;-51
2022/08/15 12:21:03;;;;;;;10.25;5.45;;;;;;;25.05;59.34;100313.28;5092636;28;20100;-50
2022/08/15 12:23:36;;;;;;;12.50;5.25;;;;;;;25.12;58.72;100307.00;5092139;28;20044;-48
2022/08/15 12:26:18;;;;;;;14.75;5.65;;;;;;;25.25;58.79;100313.94;5088488;28;20043;-48
2022/08/15 12:29:07;;;;;;;7.85;4.68;;;;;;;25.33;58.47;100317.66;5072518;28;20145;-48
2022/08/15 12:31:38;;;;;;;10.57;4.72;;;;;;;25.36;57.96;100316.88;5091615;28;20071;-49